Archival Weather

Chicago O'Hare International

Chicago, Illinois (KORD)

Report from: Sunday, December 25, 2022 1:51 AM CST
Current time: Monday, June 24, 2024 6:22 AM CDT

Current weather – Weather history – Daily summaries
Weather forecast

Temperature-15.0°C (5.0°F)
Wind chill-25.0°C (-13.0°F)
Dew point-20.6°C (-5.1°F)
Winds 13 kts (6.7 m/s, 15 mph) West (270°)
Wind gusts 26 kts (13.4 m/s, 29.9 mph)
Peak wind 26 kts (13.4 m/s, 29.9 mph) West (270°) at 07:46
Visibility10 mi. (16.1 km)
Clouds Sky clear
Altimeter29.98 in.Hg (1015 mB)
Relative humidity62 %
Density altitude-3,884 ft. (-1,184 m)
Sea-level pressure101.7 kPa (1017 mB, 30.02 in.Hg)
Remarks Automated weather observing station with precipitation discriminator
Flight conditions Visual Meteorological Conditions
Raw dataKORD 250751Z 27013G26KT 10SM CLR M15/M21 A2998 RMK AO2 PK WND 27026/0746 SLP165 T11501206
An error has occurred. This application may no longer respond until reloaded. Reload 🗙